Time,TemperatureF,DewpointF,PressureIn,WindDirection,WindDirectionDegrees,WindSpeedMPH,WindSpeedGustMPH,Humidity,HourlyPrecipIn,Conditions,Clouds,dailyrainin,SoftwareType,DateUTC
2013-08-15 00:00:00,61.8,59.5,30.09,ESE,102,0.0,0.0,92,0.00,,,0.00,Wunderground v.1.15,2013-08-15 04:00:00,
2013-08-15 00:10:00,61.6,58.9,30.09,ESE,102,0.0,0.0,91,0.00,,,0.00,Wunderground v.1.15,2013-08-15 04:10:00,
2013-08-15 00:20:00,61.3,58.7,30.10,ESE,102,0.0,0.0,91,0.00,,,0.00,Wunderground v.1.15,2013-08-15 04:20:00,
2013-08-15 00:30:00,61.1,58.8,30.10,ESE,102,0.0,0.0,92,0.00,,,0.00,Wunderground v.1.15,2013-08-15 04:30:00,
2013-08-15 00:40:00,60.9,58.6,30.10,ESE,102,0.0,0.0,92,0.00,,,0.00,Wunderground v.1.15,2013-08-15 04:40:00,
2013-08-15 00:50:00,60.8,58.5,30.10,ESE,102,0.0,0.0,92,0.00,,,0.00,Wunderground v.1.15,2013-08-15 04:50:00,
2013-08-15 01:00:00,60.7,58.4,30.10,ESE,102,0.0,0.0,92,0.00,,,0.00,Wunderground v.1.15,2013-08-15 05:00:00,
2013-08-15 01:10:00,60.5,58.2,30.10,ESE,102,0.0,0.0,92,0.00,,,0.00,Wunderground v.1.15,2013-08-15 05:10:00,
2013-08-15 01:20:00,60.4,58.1,30.09,ESE,102,0.0,0.0,92,0.00,,,0.00,Wunderground v.1.15,2013-08-15 05:20:00,
2013-08-15 01:30:00,60.2,57.9,30.10,ESE,102,0.0,0.0,92,0.00,,,0.00,Wunderground v.1.15,2013-08-15 05:30:00,
2013-08-15 01:40:00,60.0,57.7,30.09,ESE,102,0.0,0.0,92,0.00,,,0.00,Wunderground v.1.15,2013-08-15 05:40:00,
2013-08-15 01:50:00,59.8,57.5,30.09,ESE,102,0.0,0.0,92,0.00,,,0.00,Wunderground v.1.15,2013-08-15 05:50:00,
2013-08-15 02:00:00,59.7,57.4,30.09,ESE,102,0.0,0.0,92,0.00,,,0.00,Wunderground v.1.15,2013-08-15 06:00:00,
2013-08-15 02:10:00,59.5,57.2,30.09,ESE,102,0.0,0.0,92,0.00,,,0.00,Wunderground v.1.15,2013-08-15 06:10:00,
2013-08-15 02:20:00,59.6,57.3,30.09,ESE,102,0.0,0.0,92,0.00,,,0.00,Wunderground v.1.15,2013-08-15 06:20:00,
2013-08-15 02:30:00,59.6,57.3,30.09,ESE,102,0.0,0.0,92,0.00,,,0.00,Wunderground v.1.15,2013-08-15 06:30:00,
2013-08-15 02:40:00,59.5,57.2,30.09,ESE,102,0.0,0.0,92,0.00,,,0.00,Wunderground v.1.15,2013-08-15 06:40:00,
2013-08-15 02:50:00,59.5,57.2,30.09,ESE,102,0.0,0.0,92,0.00,,,0.00,Wunderground v.1.15,2013-08-15 06:50:00,
2013-08-15 03:00:00,59.3,57.0,30.09,ESE,102,0.0,0.0,92,0.00,,,0.00,Wunderground v.1.15,2013-08-15 07:00:00,
2013-08-15 03:10:00,59.1,56.8,30.09,ESE,102,0.0,0.0,92,0.00,,,0.00,Wunderground v.1.15,2013-08-15 07:10:00,
2013-08-15 03:16:00,59.0,56.7,30.09,N/A,-737280,0.0,-999.0,92,0.00,,,0.00,Wunderground v.1.15,2013-08-15 07:16:00,
2013-08-15 03:20:00,59.0,56.7,30.09,ESE,102,0.0,0.0,92,0.00,,,0.00,Wunderground v.1.15,2013-08-15 07:20:00,
2013-08-15 03:21:00,59.0,56.7,30.09,N/A,-737280,0.0,-999.0,92,0.00,,,0.00,Wunderground v.1.15,2013-08-15 07:21:00,
2013-08-15 03:26:00,59.0,56.7,30.09,N/A,-737280,0.0,-999.0,92,0.00,,,0.00,Wunderground v.1.15,2013-08-15 07:26:00,
2013-08-15 03:31:00,59.0,56.7,30.09,N/A,-737280,0.0,-999.0,92,0.00,,,0.00,Wunderground v.1.15,2013-08-15 07:31:00,
2013-08-15 03:36:00,59.0,56.7,30.09,N/A,-737280,0.0,-999.0,92,0.00,,,0.00,Wunderground v.1.15,2013-08-15 07:36:00,
2013-08-15 03:41:00,59.0,56.7,30.09,N/A,-737280,0.0,-999.0,92,0.00,,,0.00,Wunderground v.1.15,2013-08-15 07:41:00,
2013-08-15 03:46:00,58.8,56.5,30.09,N/A,-737280,0.0,-999.0,92,0.00,,,0.00,Wunderground v.1.15,2013-08-15 07:46:00,
2013-08-15 03:51:00,58.8,56.5,30.09,N/A,-737280,0.0,-999.0,92,0.00,,,0.00,Wunderground v.1.15,2013-08-15 07:51:00,
2013-08-15 03:56:00,58.9,56.6,30.09,N/A,-737280,0.0,-999.0,92,0.00,,,0.00,Wunderground v.1.15,2013-08-15 07:56:00,
2013-08-15 04:01:00,58.9,56.6,30.09,N/A,-737280,0.0,-999.0,92,0.00,,,0.00,Wunderground v.1.15,2013-08-15 08:01:00,
2013-08-15 04:06:00,58.7,56.4,30.09,N/A,-737280,0.0,-999.0,92,0.00,,,0.00,Wunderground v.1.15,2013-08-15 08:06:00,
2013-08-15 04:11:00,58.7,56.4,30.09,N/A,-737280,0.0,-999.0,92,0.00,,,0.00,Wunderground v.1.15,2013-08-15 08:11:00,
2013-08-15 04:16:00,58.6,56.3,30.10,N/A,-737280,0.0,-999.0,92,0.00,,,0.00,Wunderground v.1.15,2013-08-15 08:16:00,
2013-08-15 04:21:00,58.6,56.3,30.10,N/A,-737280,0.0,-999.0,92,0.00,,,0.00,Wunderground v.1.15,2013-08-15 08:21:00,
2013-08-15 04:26:00,58.5,56.2,30.10,N/A,-737280,0.0,-999.0,92,0.00,,,0.00,Wunderground v.1.15,2013-08-15 08:26:00,
2013-08-15 04:31:00,58.5,56.2,30.10,N/A,-737280,0.0,-999.0,92,0.00,,,0.00,Wunderground v.1.15,2013-08-15 08:31:00,
2013-08-15 04:36:00,58.2,55.9,30.11,N/A,-737280,0.0,-999.0,92,0.00,,,0.00,Wunderground v.1.15,2013-08-15 08:36:00,
2013-08-15 04:41:00,58.2,55.9,30.11,N/A,-737280,0.0,-999.0,92,0.00,,,0.00,Wunderground v.1.15,2013-08-15 08:41:00,
2013-08-15 04:46:00,58.1,55.8,30.11,N/A,-737280,0.0,-999.0,92,0.00,,,0.00,Wunderground v.1.15,2013-08-15 08:46:00,
2013-08-15 04:51:00,58.1,55.8,30.11,N/A,-737280,0.0,-999.0,92,0.00,,,0.00,Wunderground v.1.15,2013-08-15 08:51:00,
2013-08-15 04:56:00,58.0,55.7,30.10,N/A,-737280,0.0,-999.0,92,0.00,,,0.00,Wunderground v.1.15,2013-08-15 08:56:00,
2013-08-15 05:01:00,58.0,55.7,30.10,N/A,-737280,0.0,-999.0,92,0.00,,,0.00,Wunderground v.1.15,2013-08-15 09:01:00,
2013-08-15 05:06:00,58.1,56.1,30.11,N/A,-737280,0.0,-999.0,93,0.00,,,0.00,Wunderground v.1.15,2013-08-15 09:06:00,
2013-08-15 05:11:00,58.1,56.1,30.11,N/A,-737280,0.0,-999.0,93,0.00,,,0.00,Wunderground v.1.15,2013-08-15 09:11:00,
2013-08-15 05:16:00,58.0,56.0,30.11,N/A,-737280,0.0,-999.0,93,0.00,,,0.00,Wunderground v.1.15,2013-08-15 09:16:00,
2013-08-15 05:21:00,58.0,56.0,30.11,N/A,-737280,0.0,-999.0,93,0.00,,,0.00,Wunderground v.1.15,2013-08-15 09:21:00,
2013-08-15 05:26:00,58.0,56.0,30.11,N/A,-737280,0.0,-999.0,93,0.00,,,0.00,Wunderground v.1.15,2013-08-15 09:26:00,
2013-08-15 05:31:00,58.0,56.0,30.11,N/A,-737280,0.0,-999.0,93,0.00,,,0.00,Wunderground v.1.15,2013-08-15 09:31:00,
2013-08-15 05:36:00,57.9,55.9,30.12,N/A,-737280,0.0,-999.0,93,0.00,,,0.00,Wunderground v.1.15,2013-08-15 09:36:00,
2013-08-15 05:41:00,57.9,55.9,30.12,N/A,-737280,0.0,-999.0,93,0.00,,,0.00,Wunderground v.1.15,2013-08-15 09:41:00,
2013-08-15 05:46:00,57.8,55.8,30.12,N/A,-737280,0.0,-999.0,93,0.00,,,0.00,Wunderground v.1.15,2013-08-15 09:46:00,
2013-08-15 05:51:00,57.8,55.8,30.12,N/A,-737280,0.0,-999.0,93,0.00,,,0.00,Wunderground v.1.15,2013-08-15 09:51:00,
2013-08-15 05:56:00,57.7,55.7,30.13,N/A,-737280,0.0,-999.0,93,0.00,,,0.00,Wunderground v.1.15,2013-08-15 09:56:00,
2013-08-15 06:01:00,57.7,55.7,30.13,N/A,-737280,0.0,-999.0,93,0.00,,,0.00,Wunderground v.1.15,2013-08-15 10:01:00,
2013-08-15 06:06:00,57.7,55.7,30.13,N/A,-737280,0.0,-999.0,93,0.00,,,0.00,Wunderground v.1.15,2013-08-15 10:06:00,
2013-08-15 06:11:00,57.7,55.7,30.13,N/A,-737280,0.0,-999.0,93,0.00,,,0.00,Wunderground v.1.15,2013-08-15 10:11:00,
2013-08-15 06:16:00,57.7,55.7,30.13,N/A,-737280,0.0,-999.0,93,0.00,,,0.00,Wunderground v.1.15,2013-08-15 10:16:00,
2013-08-15 06:21:00,57.7,55.7,30.13,N/A,-737280,0.0,-999.0,93,0.00,,,0.00,Wunderground v.1.15,2013-08-15 10:21:00,
2013-08-15 06:26:00,57.5,55.5,30.13,East,90,0.0,-999.0,93,0.00,,,0.00,Wunderground v.1.15,2013-08-15 10:26:00,
2013-08-15 06:31:00,57.5,55.5,30.13,East,90,0.0,-999.0,93,0.00,,,0.00,Wunderground v.1.15,2013-08-15 10:31:00,
2013-08-15 06:36:00,57.5,55.5,30.13,N/A,-737280,0.0,-999.0,93,0.00,,,0.00,Wunderground v.1.15,2013-08-15 10:36:00,
2013-08-15 06:41:00,57.5,55.5,30.13,N/A,-737280,0.0,-999.0,93,0.00,,,0.00,Wunderground v.1.15,2013-08-15 10:41:00,
2013-08-15 06:46:00,57.5,55.5,30.14,N/A,-737280,0.0,-999.0,93,0.00,,,0.00,Wunderground v.1.15,2013-08-15 10:46:00,
2013-08-15 06:51:00,57.5,55.5,30.14,N/A,-737280,0.0,-999.0,93,0.00,,,0.00,Wunderground v.1.15,2013-08-15 10:51:00,
2013-08-15 06:56:00,57.5,55.5,30.15,N/A,-737280,0.0,-999.0,93,0.00,,,0.00,Wunderground v.1.15,2013-08-15 10:56:00,
2013-08-15 07:01:00,57.5,55.5,30.15,N/A,-737280,0.0,-999.0,93,0.00,,,0.00,Wunderground v.1.15,2013-08-15 11:01:00,
2013-08-15 07:06:00,57.7,55.7,30.15,N/A,-737280,0.0,-999.0,93,0.00,,,0.00,Wunderground v.1.15,2013-08-15 11:06:00,
2013-08-15 07:11:00,57.7,55.7,30.15,N/A,-737280,0.0,-999.0,93,0.00,,,0.00,Wunderground v.1.15,2013-08-15 11:11:00,
2013-08-15 07:16:00,57.8,56.1,30.15,ESE,113,0.0,-999.0,94,0.00,,,0.00,Wunderground v.1.15,2013-08-15 11:16:00,
2013-08-15 07:21:00,57.8,56.1,30.15,ESE,113,0.0,-999.0,94,0.00,,,0.00,Wunderground v.1.15,2013-08-15 11:21:00,
2013-08-15 07:26:00,57.9,56.2,30.16,N/A,-737280,0.0,-999.0,94,0.00,,,0.00,Wunderground v.1.15,2013-08-15 11:26:00,
2013-08-15 07:31:00,57.9,56.2,30.16,N/A,-737280,0.0,-999.0,94,0.00,,,0.00,Wunderground v.1.15,2013-08-15 11:31:00,
2013-08-15 07:36:00,58.2,56.5,30.16,N/A,-737280,0.0,-999.0,94,0.00,,,0.00,Wunderground v.1.15,2013-08-15 11:36:00,
2013-08-15 07:41:00,58.2,56.5,30.16,N/A,-737280,0.0,-999.0,94,0.00,,,0.00,Wunderground v.1.15,2013-08-15 11:41:00,
2013-08-15 07:46:00,58.5,56.8,30.16,N/A,-737280,0.0,-999.0,94,0.00,,,0.00,Wunderground v.1.15,2013-08-15 11:46:00,
2013-08-15 07:51:00,58.5,56.8,30.16,N/A,-737280,0.0,-999.0,94,0.00,,,0.00,Wunderground v.1.15,2013-08-15 11:51:00,
2013-08-15 07:56:00,58.8,57.1,30.16,N/A,-737280,0.0,-999.0,94,0.00,,,0.00,Wunderground v.1.15,2013-08-15 11:56:00,
2013-08-15 08:01:00,58.8,57.1,30.16,N/A,-737280,0.0,-999.0,94,0.00,,,0.00,Wunderground v.1.15,2013-08-15 12:01:00,
2013-08-15 08:06:00,59.0,57.3,30.16,N/A,-737280,0.0,-999.0,94,0.00,,,0.00,Wunderground v.1.15,2013-08-15 12:06:00,
2013-08-15 08:11:00,59.0,57.3,30.16,N/A,-737280,0.0,-999.0,94,0.00,,,0.00,Wunderground v.1.15,2013-08-15 12:11:00,
2013-08-15 08:16:00,59.0,57.3,30.17,N/A,-737280,0.0,-999.0,94,0.00,,,0.00,Wunderground v.1.15,2013-08-15 12:16:00,
2013-08-15 08:21:00,59.0,57.3,30.17,N/A,-737280,0.0,-999.0,94,0.00,,,0.00,Wunderground v.1.15,2013-08-15 12:21:00,
2013-08-15 08:26:00,59.4,57.4,30.16,N/A,-737280,0.0,-999.0,93,0.00,,,0.00,Wunderground v.1.15,2013-08-15 12:26:00,
2013-08-15 08:31:00,59.4,57.4,30.16,N/A,-737280,0.0,-999.0,93,0.00,,,0.00,Wunderground v.1.15,2013-08-15 12:31:00,
2013-08-15 08:36:00,59.4,57.4,30.16,N/A,-737280,0.0,-999.0,93,0.00,,,0.00,Wunderground v.1.15,2013-08-15 12:36:00,
2013-08-15 08:41:00,59.4,57.4,30.16,N/A,-737280,0.0,-999.0,93,0.00,,,0.00,Wunderground v.1.15,2013-08-15 12:41:00,
2013-08-15 08:46:00,59.6,57.3,30.17,ESE,113,0.0,-999.0,92,0.00,,,0.00,Wunderground v.1.15,2013-08-15 12:46:00,
2013-08-15 08:51:00,59.6,57.3,30.17,ESE,113,0.0,-999.0,92,0.00,,,0.00,Wunderground v.1.15,2013-08-15 12:51:00,
2013-08-15 08:56:00,59.9,57.6,30.17,ESE,113,0.0,-999.0,92,0.00,,,0.00,Wunderground v.1.15,2013-08-15 12:56:00,
2013-08-15 09:01:00,59.9,57.6,30.17,ESE,113,0.0,-999.0,92,0.00,,,0.00,Wunderground v.1.15,2013-08-15 13:01:00,
2013-08-15 09:06:00,60.3,58.0,30.17,ESE,113,0.0,-999.0,92,0.00,,,0.00,Wunderground v.1.15,2013-08-15 13:06:00,
2013-08-15 09:11:00,60.3,58.0,30.17,ESE,113,0.0,-999.0,92,0.00,,,0.00,Wunderground v.1.15,2013-08-15 13:11:00,
2013-08-15 09:16:00,60.6,58.0,30.17,ESE,113,0.0,-999.0,91,0.00,,,0.00,Wunderground v.1.15,2013-08-15 13:16:00,
2013-08-15 09:21:00,60.6,58.0,30.17,ESE,113,0.0,-999.0,91,0.00,,,0.00,Wunderground v.1.15,2013-08-15 13:21:00,
2013-08-15 09:26:00,60.7,57.7,30.16,ESE,113,0.0,-999.0,90,0.00,,,0.00,Wunderground v.1.15,2013-08-15 13:26:00,
2013-08-15 09:31:00,60.7,57.7,30.16,ESE,113,0.0,-999.0,90,0.00,,,0.00,Wunderground v.1.15,2013-08-15 13:31:00,
2013-08-15 09:36:00,61.3,58.3,30.15,West,270,0.0,-999.0,90,0.00,,,0.00,Wunderground v.1.15,2013-08-15 13:36:00,
2013-08-15 09:41:00,61.3,58.3,30.15,West,270,0.0,-999.0,90,0.00,,,0.00,Wunderground v.1.15,2013-08-15 13:41:00,
2013-08-15 09:46:00,61.7,58.4,30.15,West,270,0.0,-999.0,89,0.00,,,0.00,Wunderground v.1.15,2013-08-15 13:46:00,
2013-08-15 09:51:00,61.7,58.4,30.15,West,270,0.0,-999.0,89,0.00,,,0.00,Wunderground v.1.15,2013-08-15 13:51:00,
2013-08-15 09:56:00,61.9,58.6,30.16,South,180,0.0,-999.0,89,0.00,,,0.00,Wunderground v.1.15,2013-08-15 13:56:00,
2013-08-15 10:01:00,61.9,58.6,30.16,South,180,0.0,-999.0,89,0.00,,,0.00,Wunderground v.1.15,2013-08-15 14:01:00,
2013-08-15 10:06:00,62.0,58.4,30.17,South,180,0.0,-999.0,88,0.00,,,0.00,Wunderground v.1.15,2013-08-15 14:06:00,
2013-08-15 10:11:00,62.0,58.4,30.17,South,180,0.0,-999.0,88,0.00,,,0.00,Wunderground v.1.15,2013-08-15 14:11:00,
2013-08-15 10:16:00,62.7,59.1,30.16,East,90,0.0,-999.0,88,0.00,,,0.00,Wunderground v.1.15,2013-08-15 14:16:00,
2013-08-15 10:21:00,62.7,59.1,30.16,East,90,0.0,-999.0,88,0.00,,,0.00,Wunderground v.1.15,2013-08-15 14:21:00,
2013-08-15 10:26:00,63.0,58.7,30.17,WSW,248,0.0,-999.0,86,0.00,,,0.00,Wunderground v.1.15,2013-08-15 14:26:00,
2013-08-15 10:31:00,63.0,58.7,30.17,WSW,248,0.0,-999.0,86,0.00,,,0.00,Wunderground v.1.15,2013-08-15 14:31:00,
2013-08-15 10:36:00,63.3,59.4,30.17,WSW,248,0.0,-999.0,87,0.00,,,0.00,Wunderground v.1.15,2013-08-15 14:36:00,
2013-08-15 10:41:00,63.3,59.4,30.17,WSW,248,0.0,-999.0,87,0.00,,,0.00,Wunderground v.1.15,2013-08-15 14:41:00,
2013-08-15 10:46:00,64.4,59.8,30.17,WSW,248,0.0,-999.0,85,0.00,,,0.00,Wunderground v.1.15,2013-08-15 14:46:00,
2013-08-15 10:51:00,64.4,59.8,30.17,WSW,248,0.0,-999.0,85,0.00,,,0.00,Wunderground v.1.15,2013-08-15 14:51:00,
2013-08-15 10:56:00,66.1,61.5,30.17,WNW,293,1.0,-999.0,85,0.00,,,0.00,Wunderground v.1.15,2013-08-15 14:56:00,
2013-08-15 11:01:00,66.1,61.5,30.17,WNW,293,1.0,-999.0,85,0.00,,,0.00,Wunderground v.1.15,2013-08-15 15:01:00,
2013-08-15 11:06:00,67.5,61.1,30.17,WNW,293,1.0,-999.0,80,0.00,,,0.00,Wunderground v.1.15,2013-08-15 15:06:00,
2013-08-15 11:11:00,67.5,61.1,30.17,WNW,293,1.0,-999.0,80,0.00,,,0.00,Wunderground v.1.15,2013-08-15 15:11:00,
2013-08-15 11:16:00,68.6,62.2,30.17,WNW,293,1.0,-999.0,80,0.00,,,0.00,Wunderground v.1.15,2013-08-15 15:16:00,
2013-08-15 11:21:00,68.6,62.2,30.17,WNW,293,1.0,-999.0,80,0.00,,,0.00,Wunderground v.1.15,2013-08-15 15:21:00,
2013-08-15 11:26:00,70.7,63.9,30.17,South,180,0.0,-999.0,79,0.00,,,0.00,Wunderground v.1.15,2013-08-15 15:26:00,
2013-08-15 11:31:00,70.7,63.9,30.17,South,180,0.0,-999.0,79,0.00,,,0.00,Wunderground v.1.15,2013-08-15 15:31:00,
2013-08-15 11:36:00,71.3,62.6,30.17,WSW,248,1.0,-999.0,74,0.00,,,0.00,Wunderground v.1.15,2013-08-15 15:36:00,
2013-08-15 11:41:00,71.3,62.6,30.17,WSW,248,1.0,-999.0,74,0.00,,,0.00,Wunderground v.1.15,2013-08-15 15:41:00,
2013-08-15 11:46:00,71.9,63.2,30.16,SSW,203,1.0,-999.0,74,0.00,,,0.00,Wunderground v.1.15,2013-08-15 15:46:00,
2013-08-15 11:51:00,71.9,63.2,30.16,SSW,203,1.0,-999.0,74,0.00,,,0.00,Wunderground v.1.15,2013-08-15 15:51:00,
2013-08-15 11:56:00,72.4,62.5,30.17,WNW,293,1.0,-999.0,71,0.00,,,0.00,Wunderground v.1.15,2013-08-15 15:56:00,
2013-08-15 12:01:00,72.4,62.5,30.17,WNW,293,1.0,-999.0,71,0.00,,,0.00,Wunderground v.1.15,2013-08-15 16:01:00,
2013-08-15 12:06:00,72.6,62.7,30.16,SW,225,1.0,-999.0,71,0.00,,,0.00,Wunderground v.1.15,2013-08-15 16:06:00,
2013-08-15 12:11:00,72.6,62.7,30.16,SW,225,1.0,-999.0,71,0.00,,,0.00,Wunderground v.1.15,2013-08-15 16:11:00,
2013-08-15 12:16:00,73.3,62.1,30.16,WNW,293,1.0,-999.0,68,0.00,,,0.00,Wunderground v.1.15,2013-08-15 16:16:00,
2013-08-15 12:21:00,73.3,62.1,30.16,WNW,293,1.0,-999.0,68,0.00,,,0.00,Wunderground v.1.15,2013-08-15 16:21:00,
2013-08-15 12:26:00,73.9,62.2,30.16,SSW,203,1.0,-999.0,67,0.00,,,0.00,Wunderground v.1.15,2013-08-15 16:26:00,
2013-08-15 12:31:00,73.9,62.2,30.16,SSW,203,1.0,-999.0,67,0.00,,,0.00,Wunderground v.1.15,2013-08-15 16:31:00,
2013-08-15 12:36:00,74.5,62.4,30.14,SSW,203,1.0,-999.0,66,0.00,,,0.00,Wunderground v.1.15,2013-08-15 16:36:00,
2013-08-15 12:41:00,74.5,62.4,30.14,SSW,203,1.0,-999.0,66,0.00,,,0.00,Wunderground v.1.15,2013-08-15 16:41:00,
2013-08-15 12:46:00,74.3,61.8,30.14,SW,225,1.0,-999.0,65,0.00,,,0.00,Wunderground v.1.15,2013-08-15 16:46:00,
2013-08-15 12:51:00,74.3,61.8,30.14,SW,225,1.0,-999.0,65,0.00,,,0.00,Wunderground v.1.15,2013-08-15 16:51:00,
2013-08-15 12:56:00,74.1,61.1,30.14,West,270,1.0,-999.0,64,0.00,,,0.00,Wunderground v.1.15,2013-08-15 16:56:00,
2013-08-15 13:01:00,74.1,61.1,30.14,West,270,1.0,-999.0,64,0.00,,,0.00,Wunderground v.1.15,2013-08-15 17:01:00,
2013-08-15 13:06:00,74.2,61.2,30.14,SSW,203,2.0,-999.0,64,0.00,,,0.00,Wunderground v.1.15,2013-08-15 17:06:00,
2013-08-15 13:11:00,74.2,61.2,30.14,SSW,203,2.0,-999.0,64,0.00,,,0.00,Wunderground v.1.15,2013-08-15 17:11:00,
2013-08-15 13:16:00,75.2,61.7,30.13,West,270,1.0,-999.0,63,0.00,,,0.00,Wunderground v.1.15,2013-08-15 17:16:00,
2013-08-15 13:21:00,75.2,61.7,30.13,West,270,1.0,-999.0,63,0.00,,,0.00,Wunderground v.1.15,2013-08-15 17:21:00,
2013-08-15 13:26:00,75.9,60.5,30.13,West,270,1.0,-999.0,59,0.00,,,0.00,Wunderground v.1.15,2013-08-15 17:26:00,
2013-08-15 13:31:00,75.9,60.5,30.13,West,270,1.0,-999.0,59,0.00,,,0.00,Wunderground v.1.15,2013-08-15 17:31:00,
2013-08-15 13:36:00,76.5,62.0,30.13,East,90,1.0,-999.0,61,0.00,,,0.00,Wunderground v.1.15,2013-08-15 17:36:00,
2013-08-15 13:41:00,76.5,62.0,30.13,East,90,1.0,-999.0,61,0.00,,,0.00,Wunderground v.1.15,2013-08-15 17:41:00,
2013-08-15 13:46:00,76.0,60.6,30.13,West,270,1.0,-999.0,59,0.00,,,0.00,Wunderground v.1.15,2013-08-15 17:46:00,
2013-08-15 13:51:00,76.0,60.6,30.13,West,270,1.0,-999.0,59,0.00,,,0.00,Wunderground v.1.15,2013-08-15 17:51:00,
2013-08-15 13:56:00,73.8,60.4,30.13,WNW,293,1.0,-999.0,63,0.00,,,0.00,Wunderground v.1.15,2013-08-15 17:56:00,
2013-08-15 14:01:00,73.8,60.4,30.13,WNW,293,1.0,-999.0,63,0.00,,,0.00,Wunderground v.1.15,2013-08-15 18:01:00,
2013-08-15 14:06:00,74.2,60.3,30.13,West,270,1.0,-999.0,62,0.00,,,0.00,Wunderground v.1.15,2013-08-15 18:06:00,
2013-08-15 14:11:00,74.2,60.3,30.13,West,270,1.0,-999.0,62,0.00,,,0.00,Wunderground v.1.15,2013-08-15 18:11:00,
2013-08-15 14:16:00,75.1,61.6,30.12,SW,225,1.0,-999.0,63,0.00,,,0.00,Wunderground v.1.15,2013-08-15 18:16:00,
2013-08-15 14:21:00,75.1,61.6,30.12,SW,225,1.0,-999.0,63,0.00,,,0.00,Wunderground v.1.15,2013-08-15 18:21:00,
2013-08-15 14:26:00,75.5,61.1,30.12,SW,225,1.0,-999.0,61,0.00,,,0.00,Wunderground v.1.15,2013-08-15 18:26:00,
2013-08-15 14:31:00,75.5,61.1,30.12,SW,225,1.0,-999.0,61,0.00,,,0.00,Wunderground v.1.15,2013-08-15 18:31:00,
2013-08-15 14:36:00,74.4,59.1,30.12,WNW,293,1.0,-999.0,59,0.00,,,0.00,Wunderground v.1.15,2013-08-15 18:36:00,
2013-08-15 14:41:00,74.4,59.1,30.12,WNW,293,1.0,-999.0,59,0.00,,,0.00,Wunderground v.1.15,2013-08-15 18:41:00,
2013-08-15 14:46:00,74.3,60.0,30.12,SE,135,0.0,-999.0,61,0.00,,,0.00,Wunderground v.1.15,2013-08-15 18:46:00,
2013-08-15 14:51:00,74.3,60.0,30.12,SE,135,0.0,-999.0,61,0.00,,,0.00,Wunderground v.1.15,2013-08-15 18:51:00,
2013-08-15 14:56:00,74.3,61.3,30.12,WNW,293,0.0,-999.0,64,0.00,,,0.00,Wunderground v.1.15,2013-08-15 18:56:00,
2013-08-15 15:01:00,74.3,61.3,30.12,WNW,293,0.0,-999.0,64,0.00,,,0.00,Wunderground v.1.15,2013-08-15 19:01:00,
2013-08-15 15:06:00,74.0,61.0,30.11,WNW,293,0.0,-999.0,64,0.00,,,0.00,Wunderground v.1.15,2013-08-15 19:06:00,
2013-08-15 15:11:00,74.0,61.0,30.11,WNW,293,0.0,-999.0,64,0.00,,,0.00,Wunderground v.1.15,2013-08-15 19:11:00,
2013-08-15 15:16:00,73.5,60.1,30.11,WNW,293,1.0,-999.0,63,0.00,,,0.00,Wunderground v.1.15,2013-08-15 19:16:00,
2013-08-15 15:21:00,73.5,60.1,30.11,WNW,293,1.0,-999.0,63,0.00,,,0.00,Wunderground v.1.15,2013-08-15 19:21:00,
2013-08-15 15:26:00,73.2,60.3,30.11,NW,315,0.0,-999.0,64,0.00,,,0.00,Wunderground v.1.15,2013-08-15 19:26:00,
2013-08-15 15:31:00,73.2,60.3,30.11,NW,315,0.0,-999.0,64,0.00,,,0.00,Wunderground v.1.15,2013-08-15 19:31:00,
2013-08-15 15:36:00,72.9,60.9,30.10,WNW,293,0.0,-999.0,66,0.00,,,0.00,Wunderground v.1.15,2013-08-15 19:36:00,
2013-08-15 15:41:00,72.9,60.9,30.10,WNW,293,0.0,-999.0,66,0.00,,,0.00,Wunderground v.1.15,2013-08-15 19:41:00,
2013-08-15 15:46:00,72.9,61.3,30.10,WNW,293,0.0,-999.0,67,0.00,,,0.00,Wunderground v.1.15,2013-08-15 19:46:00,
2013-08-15 15:51:00,72.9,61.3,30.10,WNW,293,0.0,-999.0,67,0.00,,,0.00,Wunderground v.1.15,2013-08-15 19:51:00,
2013-08-15 15:56:00,73.0,61.0,30.10,WNW,293,0.0,-999.0,66,0.00,,,0.00,Wunderground v.1.15,2013-08-15 19:56:00,
2013-08-15 16:01:00,73.0,61.0,30.10,WNW,293,0.0,-999.0,66,0.00,,,0.00,Wunderground v.1.15,2013-08-15 20:01:00,
2013-08-15 16:06:00,72.8,61.2,30.10,WNW,293,0.0,-999.0,67,0.00,,,0.00,Wunderground v.1.15,2013-08-15 20:06:00,
2013-08-15 16:11:00,72.8,61.2,30.10,WNW,293,0.0,-999.0,67,0.00,,,0.00,Wunderground v.1.15,2013-08-15 20:11:00,
2013-08-15 16:16:00,73.0,61.4,30.09,N/A,-737280,0.0,-999.0,67,0.00,,,0.00,Wunderground v.1.15,2013-08-15 20:16:00,
2013-08-15 16:21:00,73.0,61.4,30.09,N/A,-737280,0.0,-999.0,67,0.00,,,0.00,Wunderground v.1.15,2013-08-15 20:21:00,
2013-08-15 16:26:00,72.8,61.2,30.09,WNW,293,0.0,-999.0,67,0.00,,,0.00,Wunderground v.1.15,2013-08-15 20:26:00,
2013-08-15 16:31:00,72.8,61.2,30.09,WNW,293,0.0,-999.0,67,0.00,,,0.00,Wunderground v.1.15,2013-08-15 20:31:00,
2013-08-15 16:36:00,72.6,61.4,30.10,WNW,293,0.0,-999.0,68,0.00,,,0.00,Wunderground v.1.15,2013-08-15 20:36:00,
2013-08-15 16:41:00,72.6,61.4,30.10,WNW,293,0.0,-999.0,68,0.00,,,0.00,Wunderground v.1.15,2013-08-15 20:41:00,
2013-08-15 16:46:00,72.2,62.3,30.10,WNW,293,0.0,-999.0,71,0.00,,,0.00,Wunderground v.1.15,2013-08-15 20:46:00,
2013-08-15 16:51:00,72.2,62.3,30.10,WNW,293,0.0,-999.0,71,0.00,,,0.00,Wunderground v.1.15,2013-08-15 20:51:00,
2013-08-15 16:56:00,72.0,62.5,30.09,N/A,-737280,0.0,-999.0,72,0.00,,,0.00,Wunderground v.1.15,2013-08-15 20:56:00,
2013-08-15 17:01:00,72.0,62.5,30.09,N/A,-737280,0.0,-999.0,72,0.00,,,0.00,Wunderground v.1.15,2013-08-15 21:01:00,
2013-08-15 17:06:00,71.8,63.4,30.09,N/A,-737280,0.0,-999.0,75,0.00,,,0.00,Wunderground v.1.15,2013-08-15 21:06:00,
2013-08-15 17:11:00,71.8,63.4,30.09,N/A,-737280,0.0,-999.0,75,0.00,,,0.00,Wunderground v.1.15,2013-08-15 21:11:00,
2013-08-15 17:16:00,71.5,63.2,30.08,N/A,-737280,0.0,-999.0,75,0.00,,,0.00,Wunderground v.1.15,2013-08-15 21:16:00,
2013-08-15 17:21:00,71.5,63.2,30.08,N/A,-737280,0.0,-999.0,75,0.00,,,0.00,Wunderground v.1.15,2013-08-15 21:21:00,
2013-08-15 17:26:00,71.4,63.4,30.09,WNW,293,0.0,-999.0,76,0.00,,,0.00,Wunderground v.1.15,2013-08-15 21:26:00,
2013-08-15 17:31:00,71.4,63.4,30.09,WNW,293,0.0,-999.0,76,0.00,,,0.00,Wunderground v.1.15,2013-08-15 21:31:00,
2013-08-15 17:36:00,71.0,62.7,30.09,N/A,-737280,0.0,-999.0,75,0.00,,,0.00,Wunderground v.1.15,2013-08-15 21:36:00,
2013-08-15 17:41:00,71.0,62.7,30.09,N/A,-737280,0.0,-999.0,75,0.00,,,0.00,Wunderground v.1.15,2013-08-15 21:41:00,
2013-08-15 17:46:00,71.1,63.1,30.09,WNW,293,0.0,-999.0,76,0.00,,,0.00,Wunderground v.1.15,2013-08-15 21:46:00,
2013-08-15 17:51:00,71.1,63.1,30.09,WNW,293,0.0,-999.0,76,0.00,,,0.00,Wunderground v.1.15,2013-08-15 21:51:00,
2013-08-15 17:56:00,71.0,63.8,30.10,N/A,-737280,0.0,-999.0,78,0.00,,,0.00,Wunderground v.1.15,2013-08-15 21:56:00,
2013-08-15 18:01:00,71.0,63.8,30.10,N/A,-737280,0.0,-999.0,78,0.00,,,0.00,Wunderground v.1.15,2013-08-15 22:01:00,
2013-08-15 18:06:00,70.7,63.9,30.10,N/A,-737280,0.0,-999.0,79,0.00,,,0.00,Wunderground v.1.15,2013-08-15 22:06:00,
2013-08-15 18:11:00,70.7,63.9,30.10,N/A,-737280,0.0,-999.0,79,0.00,,,0.00,Wunderground v.1.15,2013-08-15 22:11:00,
2013-08-15 18:16:00,70.4,63.6,30.10,N/A,-737280,0.0,-999.0,79,0.00,,,0.00,Wunderground v.1.15,2013-08-15 22:16:00,
2013-08-15 18:21:00,70.4,63.6,30.10,N/A,-737280,0.0,-999.0,79,0.00,,,0.00,Wunderground v.1.15,2013-08-15 22:21:00,
2013-08-15 18:26:00,70.2,63.7,30.10,N/A,-737280,0.0,-999.0,80,0.00,,,0.00,Wunderground v.1.15,2013-08-15 22:26:00,
2013-08-15 18:31:00,70.2,63.7,30.10,N/A,-737280,0.0,-999.0,80,0.00,,,0.00,Wunderground v.1.15,2013-08-15 22:31:00,
2013-08-15 18:36:00,69.7,62.9,30.09,N/A,-737280,0.0,-999.0,79,0.00,,,0.00,Wunderground v.1.15,2013-08-15 22:36:00,
2013-08-15 18:41:00,69.7,62.9,30.09,N/A,-737280,0.0,-999.0,79,0.00,,,0.00,Wunderground v.1.15,2013-08-15 22:41:00,
2013-08-15 18:46:00,69.4,63.3,30.10,N/A,-737280,0.0,-999.0,81,0.00,,,0.00,Wunderground v.1.15,2013-08-15 22:46:00,
2013-08-15 18:51:00,69.4,63.3,30.10,N/A,-737280,0.0,-999.0,81,0.00,,,0.00,Wunderground v.1.15,2013-08-15 22:51:00,
2013-08-15 18:56:00,69.3,63.6,30.10,N/A,-737280,0.0,-999.0,82,0.00,,,0.00,Wunderground v.1.15,2013-08-15 22:56:00,
2013-08-15 19:01:00,69.3,63.6,30.10,N/A,-737280,0.0,-999.0,82,0.00,,,0.00,Wunderground v.1.15,2013-08-15 23:01:00,
2013-08-15 19:06:00,69.2,63.1,30.10,N/A,-737280,0.0,-999.0,81,0.00,,,0.00,Wunderground v.1.15,2013-08-15 23:06:00,
2013-08-15 19:11:00,69.2,63.1,30.10,N/A,-737280,0.0,-999.0,81,0.00,,,0.00,Wunderground v.1.15,2013-08-15 23:11:00,
2013-08-15 19:16:00,69.1,63.4,30.10,N/A,-737280,0.0,-999.0,82,0.00,,,0.00,Wunderground v.1.15,2013-08-15 23:16:00,
2013-08-15 19:21:00,69.1,63.4,30.10,N/A,-737280,0.0,-999.0,82,0.00,,,0.00,Wunderground v.1.15,2013-08-15 23:21:00,
2013-08-15 19:26:00,68.7,62.6,30.10,N/A,-737280,0.0,-999.0,81,0.00,,,0.00,Wunderground v.1.15,2013-08-15 23:26:00,
2013-08-15 19:31:00,68.7,62.6,30.10,N/A,-737280,0.0,-999.0,81,0.00,,,0.00,Wunderground v.1.15,2013-08-15 23:31:00,
2013-08-15 19:36:00,68.6,62.9,30.10,N/A,-737280,0.0,-999.0,82,0.00,,,0.00,Wunderground v.1.15,2013-08-15 23:36:00,
2013-08-15 19:41:00,68.6,62.9,30.10,N/A,-737280,0.0,-999.0,82,0.00,,,0.00,Wunderground v.1.15,2013-08-15 23:41:00,
2013-08-15 19:46:00,68.4,62.7,30.11,N/A,-737280,0.0,-999.0,82,0.00,,,0.00,Wunderground v.1.15,2013-08-15 23:46:00,
2013-08-15 19:51:00,68.4,62.7,30.11,N/A,-737280,0.0,-999.0,82,0.00,,,0.00,Wunderground v.1.15,2013-08-15 23:51:00,
2013-08-15 19:56:00,67.9,62.2,30.11,N/A,-737280,0.0,-999.0,82,0.00,,,0.00,Wunderground v.1.15,2013-08-15 23:56:00,
2013-08-15 20:01:00,67.9,62.2,30.11,N/A,-737280,0.0,-999.0,82,0.00,,,0.00,Wunderground v.1.15,2013-08-16 00:01:00,
2013-08-15 20:06:00,67.5,61.8,30.11,N/A,-737280,0.0,-999.0,82,0.00,,,0.00,Wunderground v.1.15,2013-08-16 00:06:00,
2013-08-15 20:11:00,67.5,61.8,30.11,N/A,-737280,0.0,-999.0,82,0.00,,,0.00,Wunderground v.1.15,2013-08-16 00:11:00,
2013-08-15 20:16:00,66.9,61.6,30.12,N/A,-737280,0.0,-999.0,83,0.00,,,0.00,Wunderground v.1.15,2013-08-16 00:16:00,
2013-08-15 20:21:00,66.9,61.6,30.12,N/A,-737280,0.0,-999.0,83,0.00,,,0.00,Wunderground v.1.15,2013-08-16 00:21:00,
2013-08-15 20:26:00,66.1,61.1,30.12,N/A,-737280,0.0,-999.0,84,0.00,,,0.00,Wunderground v.1.15,2013-08-16 00:26:00,
2013-08-15 20:31:00,66.1,61.1,30.12,N/A,-737280,0.0,-999.0,84,0.00,,,0.00,Wunderground v.1.15,2013-08-16 00:31:00,
2013-08-15 20:36:00,65.2,60.2,30.12,N/A,-737280,0.0,-999.0,84,0.00,,,0.00,Wunderground v.1.15,2013-08-16 00:36:00,
2013-08-15 20:41:00,65.2,60.2,30.12,N/A,-737280,0.0,-999.0,84,0.00,,,0.00,Wunderground v.1.15,2013-08-16 00:41:00,
2013-08-15 20:46:00,64.4,59.8,30.13,N/A,-737280,0.0,-999.0,85,0.00,,,0.00,Wunderground v.1.15,2013-08-16 00:46:00,
2013-08-15 20:51:00,64.4,59.8,30.13,N/A,-737280,0.0,-999.0,85,0.00,,,0.00,Wunderground v.1.15,2013-08-16 00:51:00,
2013-08-15 20:56:00,63.9,59.6,30.13,N/A,-737280,0.0,-999.0,86,0.00,,,0.00,Wunderground v.1.15,2013-08-16 00:56:00,
2013-08-15 21:01:00,63.9,59.6,30.13,N/A,-737280,0.0,-999.0,86,0.00,,,0.00,Wunderground v.1.15,2013-08-16 01:01:00,
2013-08-15 21:06:00,63.3,59.0,30.13,N/A,-737280,0.0,-999.0,86,0.00,,,0.00,Wunderground v.1.15,2013-08-16 01:06:00,
2013-08-15 21:11:00,63.3,59.0,30.13,N/A,-737280,0.0,-999.0,86,0.00,,,0.00,Wunderground v.1.15,2013-08-16 01:11:00,
2013-08-15 21:16:00,62.8,58.9,30.13,N/A,-737280,0.0,-999.0,87,0.00,,,0.00,Wunderground v.1.15,2013-08-16 01:16:00,
2013-08-15 21:21:00,62.8,58.9,30.13,N/A,-737280,0.0,-999.0,87,0.00,,,0.00,Wunderground v.1.15,2013-08-16 01:21:00,
2013-08-15 21:26:00,62.4,58.5,30.14,N/A,-737280,0.0,-999.0,87,0.00,,,0.00,Wunderground v.1.15,2013-08-16 01:26:00,
2013-08-15 21:31:00,62.4,58.5,30.14,N/A,-737280,0.0,-999.0,87,0.00,,,0.00,Wunderground v.1.15,2013-08-16 01:31:00,
2013-08-15 21:36:00,62.0,58.4,30.14,N/A,-737280,0.0,-999.0,88,0.00,,,0.00,Wunderground v.1.15,2013-08-16 01:36:00,
2013-08-15 21:41:00,62.0,58.4,30.14,N/A,-737280,0.0,-999.0,88,0.00,,,0.00,Wunderground v.1.15,2013-08-16 01:41:00,
2013-08-15 21:46:00,61.8,58.2,30.14,N/A,-737280,0.0,-999.0,88,0.00,,,0.00,Wunderground v.1.15,2013-08-16 01:46:00,
2013-08-15 21:51:00,61.8,58.2,30.14,N/A,-737280,0.0,-999.0,88,0.00,,,0.00,Wunderground v.1.15,2013-08-16 01:51:00,
2013-08-15 21:56:00,61.6,58.0,30.14,N/A,-737280,0.0,-999.0,88,0.00,,,0.00,Wunderground v.1.15,2013-08-16 01:56:00,
2013-08-15 22:01:00,61.6,58.0,30.14,N/A,-737280,0.0,-999.0,88,0.00,,,0.00,Wunderground v.1.15,2013-08-16 02:01:00,
2013-08-15 22:06:00,61.4,58.1,30.14,N/A,-737280,0.0,-999.0,89,0.00,,,0.00,Wunderground v.1.15,2013-08-16 02:06:00,
2013-08-15 22:11:00,61.4,58.1,30.14,N/A,-737280,0.0,-999.0,89,0.00,,,0.00,Wunderground v.1.15,2013-08-16 02:11:00,
2013-08-15 22:16:00,61.1,57.8,30.14,N/A,-737280,0.0,-999.0,89,0.00,,,0.00,Wunderground v.1.15,2013-08-16 02:16:00,
2013-08-15 22:21:00,61.1,57.8,30.14,N/A,-737280,0.0,-999.0,89,0.00,,,0.00,Wunderground v.1.15,2013-08-16 02:21:00,
2013-08-15 22:26:00,60.8,57.5,30.14,N/A,-737280,0.0,-999.0,89,0.00,,,0.00,Wunderground v.1.15,2013-08-16 02:26:00,
2013-08-15 22:31:00,60.8,57.5,30.14,N/A,-737280,0.0,-999.0,89,0.00,,,0.00,Wunderground v.1.15,2013-08-16 02:31:00,
2013-08-15 22:36:00,60.5,57.6,30.14,N/A,-737280,0.0,-999.0,90,0.00,,,0.00,Wunderground v.1.15,2013-08-16 02:36:00,
2013-08-15 22:41:00,60.5,57.6,30.14,N/A,-737280,0.0,-999.0,90,0.00,,,0.00,Wunderground v.1.15,2013-08-16 02:41:00,
2013-08-15 22:46:00,60.3,57.4,30.14,N/A,-737280,0.0,-999.0,90,0.00,,,0.00,Wunderground v.1.15,2013-08-16 02:46:00,
2013-08-15 22:51:00,60.3,57.4,30.14,N/A,-737280,0.0,-999.0,90,0.00,,,0.00,Wunderground v.1.15,2013-08-16 02:51:00,
2013-08-15 22:56:00,60.1,57.2,30.14,N/A,-737280,0.0,-999.0,90,0.00,,,0.00,Wunderground v.1.15,2013-08-16 02:56:00,
2013-08-15 23:01:00,60.1,57.2,30.14,N/A,-737280,0.0,-999.0,90,0.00,,,0.00,Wunderground v.1.15,2013-08-16 03:01:00,
2013-08-15 23:06:00,59.9,57.0,30.14,N/A,-737280,0.0,-999.0,90,0.00,,,0.00,Wunderground v.1.15,2013-08-16 03:06:00,
2013-08-15 23:11:00,59.9,57.0,30.14,N/A,-737280,0.0,-999.0,90,0.00,,,0.00,Wunderground v.1.15,2013-08-16 03:11:00,
2013-08-15 23:16:00,59.7,56.8,30.14,N/A,-737280,0.0,-999.0,90,0.00,,,0.00,Wunderground v.1.15,2013-08-16 03:16:00,
2013-08-15 23:21:00,59.7,56.8,30.14,N/A,-737280,0.0,-999.0,90,0.00,,,0.00,Wunderground v.1.15,2013-08-16 03:21:00,
2013-08-15 23:26:00,59.5,56.6,30.14,N/A,-737280,0.0,-999.0,90,0.00,,,0.00,Wunderground v.1.15,2013-08-16 03:26:00,
2013-08-15 23:31:00,59.5,56.6,30.14,N/A,-737280,0.0,-999.0,90,0.00,,,0.00,Wunderground v.1.15,2013-08-16 03:31:00,
2013-08-15 23:36:00,59.5,56.9,30.13,N/A,-737280,0.0,-999.0,91,0.00,,,0.00,Wunderground v.1.15,2013-08-16 03:36:00,
2013-08-15 23:41:00,59.5,56.9,30.13,N/A,-737280,0.0,-999.0,91,0.00,,,0.00,Wunderground v.1.15,2013-08-16 03:41:00,
2013-08-15 23:46:00,59.5,56.9,30.13,N/A,-737280,0.0,-999.0,91,0.00,,,0.00,Wunderground v.1.15,2013-08-16 03:46:00,
2013-08-15 23:51:00,59.5,56.9,30.13,N/A,-737280,0.0,-999.0,91,0.00,,,0.00,Wunderground v.1.15,2013-08-16 03:51:00,
2013-08-15 23:56:00,59.5,56.9,30.13,N/A,-737280,0.0,-999.0,91,0.00,,,0.00,Wunderground v.1.15,2013-08-16 03:56:00,